Time;durP1;ratioP1;P1;durP2;ratioP2;P2;SDS_P1;SDS_P2;PMS_P1;PMS_P2;Temp;Humidity;BMP_temperature;BMP_pressure;BME280_temperature;BME280_humidity;BME280_pressure;Samples;Min_cycle;Max_cycle;Signal;HPM_P1;HPM_P2
2022/09/24 00:00:45;;;;;;;1.65;1.10;;;22.20;53.60;;;;;;5050506;28;20040;-68
2022/09/24 00:03:11;;;;;;;1.48;1.00;;;22.30;53.70;;;;;;5051005;28;20078;-67
2022/09/24 00:05:40;;;;;;;1.67;1.00;;;22.30;53.70;;;;;;5050983;28;20469;-68
2022/09/24 00:08:07;;;;;;;1.38;1.00;;;22.30;53.70;;;;;;5050962;28;20025;-68
2022/09/24 00:10:38;;;;;;;1.92;1.00;;;22.20;54.20;;;;;;5050967;28;20048;-66
2022/09/24 00:13:04;;;;;;;1.50;1.10;;;22.20;53.60;;;;;;5050674;28;20143;-68
2022/09/24 00:15:30;;;;;;;1.55;1.08;;;22.20;53.60;;;;;;5029106;28;20060;-68
2022/09/24 00:17:56;;;;;;;1.73;1.08;;;22.20;53.70;;;;;;5030851;28;20421;-68
2022/09/24 00:20:22;;;;;;;1.20;0.90;;;22.20;53.70;;;;;;5030856;28;20026;-68
2022/09/24 00:22:47;;;;;;;1.65;1.00;;;22.20;53.70;;;;;;5030862;28;20040;-68
2022/09/24 00:27:57;;;;;;;1.42;1.00;;;22.10;53.60;;;;;;5030829;28;20175;-68
2022/09/24 00:30:23;;;;;;;1.67;1.00;;;22.10;53.60;;;;;;5030366;28;20638;-68
2022/09/24 00:32:48;;;;;;;1.20;1.00;;;22.10;53.70;;;;;;5031659;28;20401;-67
2022/09/24 00:35:14;;;;;;;1.88;1.10;;;22.10;53.60;;;;;;5034867;28;20033;-68
2022/09/24 00:37:39;;;;;;;1.48;1.10;;;22.10;53.60;;;;;;5034921;28;20504;-68
2022/09/24 00:40:06;;;;;;;1.10;0.90;;;22.10;53.60;;;;;;5033581;28;20169;-69
2022/09/24 00:42:31;;;;;;;1.30;1.00;;;22.10;53.60;;;;;;5034862;28;20036;-67
2022/09/24 00:44:57;;;;;;;1.38;1.00;;;22.10;53.60;;;;;;5034814;28;20022;-68
2022/09/24 00:47:40;;;;;;;1.55;1.10;;;22.10;53.60;;;;;;5034821;28;20030;-68
2022/09/24 00:50:32;;;;;;;1.60;1.08;;;22.10;53.70;;;;;;5034101;28;20029;-68
2022/09/24 00:53:02;;;;;;;1.77;1.00;;;22.00;53.60;;;;;;5034510;28;20026;-68
2022/09/24 00:55:28;;;;;;;1.65;1.00;;;22.10;53.70;;;;;;5033720;28;20116;-67
2022/09/24 00:57:58;;;;;;;1.95;1.13;;;22.10;53.70;;;;;;5034607;28;20029;-68
2022/09/24 01:00:24;;;;;;;1.58;1.10;;;22.00;53.60;;;;;;5034111;28;20029;-68
2022/09/24 01:02:55;;;;;;;1.40;0.90;;;22.10;54.20;;;;;;5034496;28;20104;-67
2022/09/24 01:05:21;;;;;;;1.38;1.00;;;22.00;53.60;;;;;;5034578;28;20105;-68
2022/09/24 01:07:47;;;;;;;1.30;0.98;;;22.00;53.60;;;;;;5034522;28;20125;-68
2022/09/24 01:10:46;;;;;;;1.13;0.88;;;22.00;53.60;;;;;;5034359;28;20055;-68
2022/09/24 01:13:17;;;;;;;1.20;0.90;;;22.00;53.60;;;;;;5034162;28;20155;-67
2022/09/24 01:16:01;;;;;;;1.60;1.02;;;22.00;53.70;;;;;;5032389;28;20057;-67
2022/09/24 01:18:50;;;;;;;1.38;1.00;;;22.00;53.60;;;;;;5032697;28;20025;-67
2022/09/24 01:21:34;;;;;;;1.23;0.90;;;22.00;53.70;;;;;;5032857;28;20022;-68
2022/09/24 01:24:24;;;;;;;1.83;1.17;;;22.00;53.70;;;;;;5033228;28;20441;-67
2022/09/24 01:27:07;;;;;;;1.38;1.00;;;22.00;53.70;;;;;;5032942;28;20384;-67
2022/09/24 01:30:05;;;;;;;1.35;0.93;;;21.90;53.70;;;;;;5033636;28;20022;-67
2022/09/24 01:32:54;;;;;;;1.10;0.80;;;21.90;53.70;;;;;;5033089;28;20454;-69
2022/09/24 01:35:40;;;;;;;;;;;21.90;53.70;;;;;;5033325;28;20452;-67
2022/09/24 01:38:14;;;;;;;1.35;0.93;;;21.90;53.70;;;;;;5032574;28;19915;-68
2022/09/24 01:40:42;;;;;;;1.85;0.98;;;21.90;53.70;;;;;;5032572;28;20393;-68
2022/09/24 01:43:09;;;;;;;1.45;1.00;;;21.90;53.70;;;;;;5033976;28;20048;-69
2022/09/24 01:45:37;;;;;;;1.05;0.90;;;21.90;53.80;;;;;;5032704;28;20473;-67
2022/09/24 01:48:03;;;;;;;1.40;1.00;;;21.90;53.70;;;;;;5033822;28;20032;-68
2022/09/24 01:50:36;;;;;;;1.60;1.00;;;21.90;53.70;;;;;;5033705;28;20079;-67
2022/09/24 01:53:19;;;;;;;1.52;0.95;;;21.90;53.70;;;;;;5033640;28;20095;-68
2022/09/24 01:55:49;;;;;;;1.75;1.10;;;21.90;53.70;;;;;;5032216;28;20021;-66
2022/09/24 01:58:22;;;;;;;1.17;0.90;;;21.90;53.70;;;;;;5033575;28;20064;-69
2022/09/24 02:00:52;;;;;;;1.25;0.90;;;21.90;53.70;;;;;;5031956;28;20092;-68
2022/09/24 02:03:22;;;;;;;1.77;1.15;;;21.80;53.70;;;;;;5033481;28;20025;-66
2022/09/24 02:05:52;;;;;;;;;;;21.90;53.80;;;;;;5033014;28;20432;-67
2022/09/24 02:08:21;;;;;;;1.75;1.20;;;21.80;53.70;;;;;;5033797;28;20440;-70
2022/09/24 02:10:50;;;;;;;1.20;0.90;;;21.80;53.70;;;;;;5032908;28;20572;-68
2022/09/24 02:13:19;;;;;;;1.20;0.90;;;21.80;53.70;;;;;;5033387;28;20033;-70
2022/09/24 02:15:49;;;;;;;1.00;0.87;;;21.80;53.70;;;;;;5041098;28;20048;-68
2022/09/24 02:18:18;;;;;;;1.40;0.90;;;21.80;53.70;;;;;;5052918;28;20021;-67
2022/09/24 02:20:45;;;;;;;1.27;1.00;;;21.80;53.70;;;;;;5053101;28;20032;-66
2022/09/24 02:23:13;;;;;;;1.38;0.90;;;21.80;53.70;;;;;;5053147;28;20025;-68
2022/09/24 02:25:54;;;;;;;1.40;0.90;;;21.80;53.80;;;;;;5053051;28;20389;-68
2022/09/24 02:28:20;;;;;;;1.40;1.02;;;21.80;53.80;;;;;;5051116;28;20108;-66
2022/09/24 02:30:51;;;;;;;1.63;1.00;;;21.80;53.80;;;;;;5052410;28;20036;-70
2022/09/24 02:36:04;;;;;;;2.03;1.00;;;21.80;53.70;;;;;;5051637;28;20545;-67
2022/09/24 02:38:30;;;;;;;1.35;1.08;;;21.80;53.70;;;;;;5052727;28;20025;-68
2022/09/24 02:40:56;;;;;;;1.40;0.90;;;21.80;53.70;;;;;;5052766;28;20416;-67
2022/09/24 02:43:21;;;;;;;1.40;1.00;;;21.70;53.70;;;;;;5052645;28;20032;-67
2022/09/24 02:45:47;;;;;;;1.17;0.90;;;21.70;53.70;;;;;;5052363;28;20107;-68
2022/09/24 02:48:12;;;;;;;1.95;1.00;;;21.70;53.80;;;;;;5052598;28;20040;-66
2022/09/24 02:50:38;;;;;;;1.52;1.00;;;21.70;53.80;;;;;;5052495;28;20040;-67
2022/09/24 02:53:03;;;;;;;2.10;1.10;;;21.70;53.80;;;;;;5052507;28;20032;-67
2022/09/24 02:55:29;;;;;;;1.40;0.90;;;21.70;53.70;;;;;;5052234;28;20021;-67
2022/09/24 02:57:54;;;;;;;1.42;1.00;;;21.70;53.70;;;;;;5052238;28;20548;-67
2022/09/24 03:00:20;;;;;;;1.13;0.90;;;21.70;53.80;;;;;;5051821;28;20388;-65
2022/09/24 03:02:49;;;;;;;2.15;1.30;;;21.70;53.70;;;;;;5052275;28;20425;-68
2022/09/24 03:05:18;;;;;;;1.42;0.93;;;21.70;53.80;;;;;;5052082;28;20042;-68
2022/09/24 03:07:44;;;;;;;1.08;0.82;;;21.70;53.80;;;;;;5041212;28;20485;-66
2022/09/24 03:10:10;;;;;;;1.10;0.90;;;21.70;53.80;;;;;;5052158;28;20365;-68
2022/09/24 03:12:36;;;;;;;1.50;0.90;;;21.70;53.80;;;;;;5051687;28;20033;-67
2022/09/24 03:15:02;;;;;;;1.27;0.95;;;21.70;53.80;;;;;;5051883;28;20759;-67
2022/09/24 03:17:27;;;;;;;1.35;1.02;;;21.60;53.70;;;;;;5051771;28;20025;-67
2022/09/24 03:19:53;;;;;;;2.25;1.08;;;21.70;53.80;;;;;;5052003;28;20024;-68
2022/09/24 03:22:19;;;;;;;1.13;0.85;;;21.70;53.80;;;;;;5051948;28;20025;-67
2022/09/24 03:24:45;;;;;;;1.25;0.93;;;21.60;53.80;;;;;;5051732;28;20021;-67
2022/09/24 03:27:10;;;;;;;1.73;0.90;;;21.60;53.70;;;;;;5051725;28;20024;-68
2022/09/24 03:32:20;;;;;;;1.73;0.95;;;21.60;53.70;;;;;;5051230;28;20059;-68
2022/09/24 03:34:46;;;;;;;1.92;0.98;;;21.60;53.70;;;;;;5051633;28;20056;-68
2022/09/24 03:37:12;;;;;;;0.90;0.80;;;21.60;53.70;;;;;;5051577;28;20040;-68
2022/09/24 03:39:37;;;;;;;1.38;0.90;;;21.60;53.70;;;;;;5051619;28;20384;-69
2022/09/24 03:42:03;;;;;;;1.40;0.88;;;21.60;53.80;;;;;;5051439;28;20028;-68
2022/09/24 03:44:29;;;;;;;1.38;0.90;;;21.60;53.80;;;;;;5051423;28;20033;-67
2022/09/24 03:46:55;;;;;;;1.27;0.93;;;21.60;53.80;;;;;;5051414;28;20511;-67
2022/09/24 03:49:22;;;;;;;1.33;0.93;;;21.60;53.80;;;;;;5051364;28;20460;-66
2022/09/24 03:51:49;;;;;;;1.33;1.00;;;21.60;53.80;;;;;;5051282;28;20036;-67
2022/09/24 03:54:15;;;;;;;1.40;0.93;;;21.60;53.80;;;;;;5051169;28;20020;-67
2022/09/24 03:56:41;;;;;;;1.17;0.90;;;21.60;53.70;;;;;;5051149;28;20025;-67
2022/09/24 03:59:11;;;;;;;1.40;1.00;;;21.60;53.70;;;;;;5049181;28;20036;-67
2022/09/24 04:01:37;;;;;;;1.42;0.90;;;21.50;53.70;;;;;;5050263;28;20374;-67
2022/09/24 04:04:04;;;;;;;1.35;1.00;;;21.50;53.70;;;;;;5051091;28;20079;-67
2022/09/24 04:06:30;;;;;;;1.45;1.00;;;21.60;53.80;;;;;;5049775;28;20112;-67
2022/09/24 04:08:56;;;;;;;1.83;0.80;;;21.50;53.70;;;;;;5050511;28;20484;-67
2022/09/24 04:11:23;;;;;;;1.20;0.90;;;21.50;53.70;;;;;;5051003;28;20017;-67
2022/09/24 04:13:49;;;;;;;1.38;1.00;;;21.50;53.70;;;;;;5051005;28;20033;-68
2022/09/24 04:16:14;;;;;;;1.15;0.90;;;21.50;53.70;;;;;;5050646;28;20044;-67
2022/09/24 04:18:40;;;;;;;1.65;1.05;;;21.50;53.70;;;;;;5050995;28;20017;-68
2022/09/24 04:21:06;;;;;;;1.15;0.85;;;21.50;53.70;;;;;;5050878;28;20036;-67
2022/09/24 04:23:31;;;;;;;1.20;0.80;;;21.50;53.70;;;;;;5050922;28;20032;-69
2022/09/24 04:26:00;;;;;;;1.15;0.90;;;21.50;53.70;;;;;;5050910;28;20528;-69
2022/09/24 04:28:27;;;;;;;1.42;0.95;;;21.50;53.70;;;;;;5049251;28;20036;-69
2022/09/24 04:30:53;;;;;;;1.45;0.98;;;21.50;53.70;;;;;;5050387;28;20041;-67
2022/09/24 04:33:18;;;;;;;1.10;0.85;;;21.50;53.80;;;;;;5050271;28;20573;-68
2022/09/24 04:35:44;;;;;;;1.20;0.95;;;21.50;53.70;;;;;;5050757;28;20060;-66
2022/09/24 04:38:10;;;;;;;1.27;1.00;;;21.50;53.70;;;;;;5050738;28;20021;-70
2022/09/24 04:40:37;;;;;;;1.35;0.90;;;21.40;53.70;;;;;;5049619;28;20111;-68
2022/09/24 04:43:04;;;;;;;0.90;0.80;;;21.50;53.70;;;;;;5050711;28;20468;-69
2022/09/24 04:45:31;;;;;;;1.20;1.00;;;21.40;53.70;;;;;;5050783;28;20414;-68
2022/09/24 04:47:56;;;;;;;1.23;0.95;;;21.50;53.80;;;;;;5050753;28;20029;-68
2022/09/24 04:50:27;;;;;;;1.00;0.88;;;21.40;53.70;;;;;;5050574;28;20108;-67
2022/09/24 04:52:54;;;;;;;1.20;0.90;;;21.40;53.70;;;;;;5049500;28;20494;-68
2022/09/24 04:55:20;;;;;;;0.98;0.85;;;21.40;53.70;;;;;;5050683;28;20051;-67
2022/09/24 04:57:47;;;;;;;1.20;0.90;;;21.40;53.70;;;;;;5050161;28;20877;-68
2022/09/24 05:00:16;;;;;;;1.40;1.10;;;21.40;53.70;;;;;;5049317;28;20473;-68
2022/09/24 05:02:42;;;;;;;0.85;0.85;;;21.40;53.70;;;;;;5050016;28;20060;-68
2022/09/24 05:05:10;;;;;;;1.40;0.98;;;21.40;53.70;;;;;;5050500;28;20497;-68
2022/09/24 05:07:35;;;;;;;1.15;0.93;;;21.40;53.70;;;;;;5050564;28;20439;-69
2022/09/24 05:10:01;;;;;;;1.25;0.98;;;21.40;53.70;;;;;;5050452;28;20021;-68
2022/09/24 05:12:27;;;;;;;1.20;1.00;;;21.40;53.70;;;;;;5050560;28;20035;-68
2022/09/24 05:14:52;;;;;;;1.17;0.90;;;21.40;53.70;;;;;;5050324;28;20033;-67
2022/09/24 05:17:18;;;;;;;1.08;0.80;;;21.40;53.70;;;;;;5050325;28;20072;-68
2022/09/24 05:19:44;;;;;;;0.90;0.85;;;21.40;53.70;;;;;;5052677;28;20021;-67
2022/09/24 05:22:09;;;;;;;1.50;1.00;;;21.40;53.70;;;;;;5054243;28;20029;-68
2022/09/24 05:24:35;;;;;;;1.48;0.90;;;21.40;53.70;;;;;;5054092;28;20028;-68
2022/09/24 05:27:09;;;;;;;1.00;0.80;;;21.40;53.70;;;;;;5054079;28;20107;-68
2022/09/24 05:29:42;;;;;;;1.17;0.90;;;21.40;53.70;;;;;;5053995;28;20429;-68
2022/09/24 05:32:16;;;;;;;1.20;0.90;;;21.40;53.70;;;;;;5053600;28;20041;-68
2022/09/24 05:34:43;;;;;;;1.20;0.82;;;21.40;53.70;;;;;;5053497;28;20033;-68
2022/09/24 05:37:09;;;;;;;1.77;1.00;;;21.30;53.70;;;;;;5053840;28;20712;-68
2022/09/24 05:39:34;;;;;;;1.40;1.02;;;21.30;53.70;;;;;;5053974;28;20068;-68
2022/09/24 05:42:04;;;;;;;1.40;0.82;;;21.30;53.70;;;;;;5053704;28;20472;-68
2022/09/24 05:44:32;;;;;;;1.05;0.80;;;21.30;53.70;;;;;;5053703;28;20536;-68
2022/09/24 05:46:58;;;;;;;1.08;0.90;;;21.30;53.70;;;;;;5053806;28;20063;-68
2022/09/24 05:49:24;;;;;;;0.82;0.80;;;21.30;53.70;;;;;;5053745;28;20492;-66
2022/09/24 05:51:50;;;;;;;1.00;0.90;;;21.30;53.70;;;;;;5053575;28;20040;-67
2022/09/24 05:54:17;;;;;;;1.40;0.98;;;21.30;53.70;;;;;;5053600;28;20017;-67
2022/09/24 05:56:43;;;;;;;1.25;0.88;;;21.30;53.80;;;;;;5051515;28;20499;-68
2022/09/24 05:59:09;;;;;;;0.98;0.85;;;21.30;53.70;;;;;;5052297;28;20025;-68
2022/09/24 06:01:35;;;;;;;1.05;0.80;;;21.30;53.80;;;;;;5052714;28;20037;-67
2022/09/24 06:04:00;;;;;;;1.10;0.88;;;21.30;53.80;;;;;;5053348;28;20082;-66
2022/09/24 06:06:27;;;;;;;1.23;0.82;;;21.30;53.80;;;;;;5053413;28;20063;-67
2022/09/24 06:08:53;;;;;;;1.20;0.95;;;21.30;53.80;;;;;;5053263;28;20425;-66
2022/09/24 06:11:21;;;;;;;1.40;1.05;;;21.30;53.80;;;;;;5053373;28;20479;-67
2022/09/24 06:13:50;;;;;;;1.00;0.85;;;21.30;53.80;;;;;;5052794;28;20021;-67
2022/09/24 06:16:16;;;;;;;1.02;0.85;;;21.30;54.30;;;;;;5051945;28;20049;-66
2022/09/24 06:18:43;;;;;;;0.98;0.77;;;21.30;53.80;;;;;;5053049;28;20122;-67
2022/09/24 06:21:14;;;;;;;1.25;1.00;;;21.30;53.80;;;;;;5053053;28;20021;-67
2022/09/24 06:23:40;;;;;;;1.35;0.80;;;21.30;53.80;;;;;;5051399;28;20040;-67
2022/09/24 06:26:09;;;;;;;1.33;0.93;;;21.30;53.80;;;;;;5053020;28;20473;-68
2022/09/24 06:28:37;;;;;;;1.30;1.00;;;21.30;53.80;;;;;;5053098;28;20029;-67
2022/09/24 06:31:03;;;;;;;1.33;0.90;;;21.30;53.80;;;;;;5051837;28;20037;-67
2022/09/24 06:33:29;;;;;;;1.10;0.82;;;21.30;53.80;;;;;;5052981;28;20397;-67
2022/09/24 06:35:59;;;;;;;1.08;0.98;;;21.30;53.80;;;;;;5052847;28;20558;-67
2022/09/24 06:38:25;;;;;;;1.42;1.00;;;21.20;53.80;;;;;;5052681;28;20108;-67
2022/09/24 06:40:51;;;;;;;2.13;0.70;;;21.20;53.70;;;;;;5052157;28;20104;-66
2022/09/24 06:43:17;;;;;;;1.10;0.90;;;21.20;53.80;;;;;;5052569;28;20029;-67
2022/09/24 06:45:43;;;;;;;1.63;1.00;;;21.20;53.80;;;;;;5052523;28;20036;-68
2022/09/24 06:48:11;;;;;;;1.85;1.00;;;21.20;53.80;;;;;;5052573;28;20098;-67
2022/09/24 06:50:39;;;;;;;1.30;0.90;;;21.20;53.80;;;;;;5052403;28;20033;-68
2022/09/24 06:53:06;;;;;;;1.30;0.93;;;21.20;53.80;;;;;;5051157;28;20032;-66
2022/09/24 06:55:32;;;;;;;1.10;0.90;;;21.20;53.80;;;;;;5052464;28;20309;-66
2022/09/24 06:58:10;;;;;;;1.27;0.90;;;21.20;53.80;;;;;;5051770;28;20598;-66
2022/09/24 07:00:37;;;;;;;0.70;0.70;;;21.20;53.80;;;;;;5051214;28;20035;-68
2022/09/24 07:03:04;;;;;;;1.10;0.82;;;21.20;53.90;;;;;;5052298;28;20056;-67
2022/09/24 07:05:29;;;;;;;1.40;0.90;;;21.20;53.80;;;;;;5052286;28;20056;-67
2022/09/24 07:07:55;;;;;;;1.10;0.80;;;21.20;53.80;;;;;;5052259;28;20057;-67
2022/09/24 07:10:23;;;;;;;1.23;0.70;;;21.20;53.80;;;;;;5052218;28;20037;-68
2022/09/24 07:12:48;;;;;;;0.82;0.80;;;21.20;53.80;;;;;;5052307;28;20052;-67
2022/09/24 07:15:14;;;;;;;1.17;0.98;;;21.20;53.80;;;;;;5051932;28;20120;-67
2022/09/24 07:17:39;;;;;;;1.80;1.17;;;21.20;53.80;;;;;;5051823;28;20025;-67
2022/09/24 07:20:06;;;;;;;1.13;0.90;;;21.20;53.80;;;;;;5052011;28;20029;-68
2022/09/24 07:22:31;;;;;;;1.35;1.00;;;21.20;53.80;;;;;;5051914;28;20056;-67
2022/09/24 07:24:57;;;;;;;2.38;1.10;;;21.20;53.80;;;;;;5051893;28;20067;-67
2022/09/24 07:27:22;;;;;;;1.20;1.00;;;21.20;53.80;;;;;;5051830;28;20036;-68
2022/09/24 07:29:48;;;;;;;1.23;1.00;;;21.20;53.80;;;;;;5051689;28;20078;-68
2022/09/24 07:32:16;;;;;;;1.30;0.95;;;21.20;53.80;;;;;;5049554;28;20396;-67
2022/09/24 07:34:42;;;;;;;1.23;0.90;;;21.20;53.80;;;;;;5051051;28;20040;-66
2022/09/24 07:37:07;;;;;;;1.48;0.90;;;21.10;53.80;;;;;;5050859;28;20029;-66
2022/09/24 07:39:33;;;;;;;1.27;0.80;;;21.10;53.80;;;;;;5050876;28;20104;-67
2022/09/24 07:42:00;;;;;;;0.80;0.80;;;21.10;53.90;;;;;;5050889;28;20037;-68
2022/09/24 07:44:27;;;;;;;1.10;0.80;;;21.10;53.90;;;;;;5051259;28;20021;-67
2022/09/24 07:46:54;;;;;;;0.93;0.80;;;21.10;53.90;;;;;;5051584;28;20044;-68
2022/09/24 07:49:20;;;;;;;1.67;0.90;;;21.10;53.90;;;;;;5051494;28;20392;-68
2022/09/24 07:51:46;;;;;;;1.17;0.77;;;21.10;53.90;;;;;;5051406;28;20472;-67
2022/09/24 07:54:11;;;;;;;1.20;0.90;;;21.10;53.90;;;;;;5051088;28;20044;-67
2022/09/24 07:56:37;;;;;;;1.02;0.90;;;21.10;53.90;;;;;;5050351;28;20029;-68
2022/09/24 07:59:05;;;;;;;1.00;0.80;;;21.10;53.90;;;;;;5050671;28;20025;-68
2022/09/24 08:01:31;;;;;;;1.60;1.02;;;21.10;53.90;;;;;;5050653;28;20049;-67
2022/09/24 08:03:58;;;;;;;1.35;0.93;;;21.10;53.90;;;;;;5051130;28;20071;-68
2022/09/24 08:06:24;;;;;;;0.95;0.80;;;21.10;53.90;;;;;;5051087;28;20461;-68
2022/09/24 08:08:51;;;;;;;1.40;1.00;;;21.10;54.00;;;;;;5050290;28;20036;-66
2022/09/24 08:11:18;;;;;;;1.50;0.90;;;21.10;53.90;;;;;;5050133;28;20421;-67
2022/09/24 08:13:44;;;;;;;1.77;0.90;;;21.10;54.00;;;;;;5050311;28;20025;-68
2022/09/24 08:16:09;;;;;;;0.95;0.80;;;21.10;54.00;;;;;;5050193;28;20068;-67
2022/09/24 08:18:35;;;;;;;0.88;0.80;;;21.10;54.00;;;;;;5050385;28;20128;-67
2022/09/24 08:21:10;;;;;;;1.20;0.80;;;21.10;53.90;;;;;;5050248;28;20057;-66
2022/09/24 08:23:39;;;;;;;1.13;0.90;;;21.10;53.90;;;;;;5050212;28;20032;-67
2022/09/24 08:26:05;;;;;;;1.17;0.80;;;21.10;54.00;;;;;;5049319;28;20053;-67
2022/09/24 08:28:31;;;;;;;1.20;0.90;;;21.10;53.90;;;;;;5050109;28;20556;-67
2022/09/24 08:30:59;;;;;;;1.10;0.82;;;21.10;54.00;;;;;;5049983;28;20192;-67
2022/09/24 08:33:25;;;;;;;1.27;0.90;;;21.10;54.00;;;;;;5049804;28;20025;-66
2022/09/24 08:35:51;;;;;;;1.10;0.82;;;21.10;54.50;;;;;;5049855;28;20025;-68
2022/09/24 08:38:19;;;;;;;1.05;0.90;;;21.10;54.00;;;;;;5050463;28;20435;-67
2022/09/24 08:41:00;;;;;;;1.17;0.90;;;21.10;54.00;;;;;;5050195;28;20025;-67
2022/09/24 08:43:50;;;;;;;1.40;0.90;;;21.10;54.00;;;;;;5023759;28;20025;-67
2022/09/24 08:49:21;;;;;;;1.27;0.80;;;21.00;53.90;;;;;;5049962;28;20595;-68
2022/09/24 08:52:13;;;;;;;0.85;0.73;;;21.10;54.00;;;;;;5050081;28;20041;-66
2022/09/24 08:54:40;;;;;;;1.38;0.90;;;21.00;54.00;;;;;;5052814;28;20025;-67
2022/09/24 08:57:13;;;;;;;0.98;0.80;;;21.00;54.00;;;;;;5054602;28;20037;-67
2022/09/24 08:59:42;;;;;;;0.82;0.70;;;21.00;53.90;;;;;;5053921;28;20025;-68
2022/09/24 09:02:23;;;;;;;1.33;0.90;;;21.00;54.50;;;;;;5052863;28;20033;-66
2022/09/24 09:05:33;;;;;;;1.35;1.00;;;21.00;54.00;;;;;;5053934;28;20550;-66
2022/09/24 09:08:03;;;;;;;1.25;0.90;;;21.00;54.10;;;;;;5049175;28;20552;-67
2022/09/24 09:10:36;;;;;;;1.20;0.80;;;21.00;54.00;;;;;;5053319;28;20040;-67
2022/09/24 09:13:24;;;;;;;2.08;0.80;;;21.00;54.00;;;;;;5054074;28;20033;-66
2022/09/24 09:16:02;;;;;;;1.33;0.90;;;21.00;54.10;;;;;;5054075;28;20110;-66
2022/09/24 09:18:36;;;;;;;1.00;0.80;;;21.00;54.00;;;;;;5052623;28;20025;-66
2022/09/24 09:21:30;;;;;;;1.10;0.80;;;21.00;54.00;;;;;;5053510;28;20105;-66
2022/09/24 09:23:58;;;;;;;1.05;0.90;;;21.00;54.10;;;;;;5053822;28;20033;-66
2022/09/24 09:26:26;;;;;;;1.55;1.00;;;21.00;54.10;;;;;;5054062;28;20021;-67
2022/09/24 09:28:54;;;;;;;1.15;0.95;;;21.00;54.10;;;;;;5053963;28;20492;-66
2022/09/24 09:31:34;;;;;;;1.10;0.80;;;21.00;54.10;;;;;;5053460;28;20037;-67
2022/09/24 09:34:16;;;;;;;1.45;1.23;;;21.00;54.10;;;;;;5053833;28;20033;-66
2022/09/24 09:37:23;;;;;;;2.53;0.80;;;21.00;54.10;;;;;;5053669;28;20538;-66
2022/09/24 09:40:21;;;;;;;1.40;1.00;;;21.00;54.10;;;;;;5053403;28;20037;-67
2022/09/24 09:42:47;;;;;;;1.23;0.90;;;21.00;54.20;;;;;;5053249;28;20475;-67
2022/09/24 09:45:46;;;;;;;1.67;0.90;;;21.00;54.20;;;;;;5053647;28;20025;-67
2022/09/24 09:48:15;;;;;;;2.03;0.80;;;21.00;54.20;;;;;;5053416;28;20021;-67
2022/09/24 09:50:46;;;;;;;1.13;0.90;;;21.00;54.20;;;;;;5053571;28;20025;-66
2022/09/24 09:53:26;;;;;;;2.35;1.08;;;21.00;54.30;;;;;;5053421;28;20052;-66
2022/09/24 09:56:03;;;;;;;1.50;0.90;;;20.90;54.20;;;;;;5035287;28;20037;-66
2022/09/24 09:58:34;;;;;;;1.60;0.90;;;21.00;54.20;;;;;;5052979;28;20542;-67
2022/09/24 10:01:17;;;;;;;1.23;0.95;;;21.00;54.30;;;;;;5052798;28;20083;-67
2022/09/24 10:03:45;;;;;;;1.80;0.98;;;21.00;54.30;;;;;;5052953;28;20416;-66
2022/09/24 10:06:14;;;;;;;1.35;1.00;;;21.00;54.30;;;;;;5049829;28;20021;-66
2022/09/24 10:08:39;;;;;;;1.80;1.00;;;21.00;54.30;;;;;;5052700;28;20044;-66
2022/09/24 10:11:12;;;;;;;1.80;1.00;;;21.00;54.40;;;;;;5053006;28;20067;-67
2022/09/24 10:13:38;;;;;;;1.80;0.98;;;21.00;54.50;;;;;;5053109;28;20067;-66
2022/09/24 10:16:07;;;;;;;1.02;0.90;;;21.00;54.40;;;;;;5053010;28;20080;-66
2022/09/24 10:18:55;;;;;;;1.85;1.00;;;21.00;54.40;;;;;;5052595;28;20025;-66
2022/09/24 10:21:35;;;;;;;1.60;0.90;;;21.00;54.50;;;;;;5051353;28;20095;-66
2022/09/24 10:24:03;;;;;;;1.92;1.00;;;21.00;54.60;;;;;;5052909;28;20021;-66
2022/09/24 10:26:37;;;;;;;1.73;0.98;;;20.90;54.60;;;;;;5051901;28;20037;-65
2022/09/24 10:31:49;;;;;;;0.98;0.85;;;21.00;54.60;;;;;;5050864;28;20040;-66
2022/09/24 10:34:25;;;;;;;1.60;1.00;;;21.00;54.60;;;;;;5052715;28;20021;-66
2022/09/24 10:37:15;;;;;;;1.33;1.10;;;21.00;54.60;;;;;;5050676;28;20088;-66
2022/09/24 10:39:41;;;;;;;2.40;1.20;;;21.00;54.70;;;;;;5050197;28;20025;-66
2022/09/24 10:42:24;;;;;;;1.50;1.10;;;21.00;54.80;;;;;;5052551;28;20021;-66
2022/09/24 10:44:49;;;;;;;1.48;0.98;;;21.00;54.70;;;;;;5051798;28;20041;-66
2022/09/24 10:47:25;;;;;;;1.65;1.10;;;21.00;54.70;;;;;;5052268;28;20092;-66
2022/09/24 10:50:11;;;;;;;2.30;1.00;;;21.00;54.70;;;;;;5051709;28;20067;-65
2022/09/24 10:52:45;;;;;;;3.17;1.13;;;21.00;54.70;;;;;;5051550;28;20044;-66
2022/09/24 10:55:11;;;;;;;2.42;1.20;;;21.00;54.70;;;;;;5052004;28;20025;-66
2022/09/24 10:57:48;;;;;;;2.42;1.30;;;21.00;54.70;;;;;;5051522;28;20036;-66
2022/09/24 11:00:22;;;;;;;2.10;1.00;;;21.00;54.70;;;;;;5050312;28;20377;-66
2022/09/24 11:02:50;;;;;;;2.42;1.27;;;21.00;54.70;;;;;;5048778;28;20024;-66
2022/09/24 11:05:23;;;;;;;3.47;0.95;;;21.00;54.70;;;;;;5050235;28;20029;-67
2022/09/24 11:08:06;;;;;;;2.30;1.20;;;21.00;54.70;;;;;;5051529;28;20362;-66
2022/09/24 11:10:53;;;;;;;1.90;1.20;;;21.00;54.70;;;;;;5051111;28;20131;-66
2022/09/24 11:13:31;;;;;;;2.78;1.67;;;21.00;54.70;;;;;;5049284;28;20585;-65
2022/09/24 11:16:15;;;;;;;2.00;1.15;;;21.00;54.70;;;;;;5050855;28;20048;-65
2022/09/24 11:18:46;;;;;;;1.92;1.10;;;21.00;54.60;;;;;;5051325;28;20083;-66
2022/09/24 11:21:27;;;;;;;2.45;1.20;;;21.00;54.70;;;;;;5051604;28;20051;-67
2022/09/24 11:24:18;;;;;;;2.17;1.02;;;21.00;54.70;;;;;;5051147;28;20468;-67
2022/09/24 11:26:47;;;;;;;3.05;1.10;;;21.00;54.70;;;;;;5051204;28;20025;-66
2022/09/24 11:29:31;;;;;;;1.98;1.20;;;21.00;54.60;;;;;;5048868;28;20483;-66
2022/09/24 11:32:05;;;;;;;1.60;1.10;;;21.00;54.70;;;;;;5050768;28;20507;-66
2022/09/24 11:34:49;;;;;;;1.77;1.10;;;21.00;54.60;;;;;;5051281;28;20085;-66
2022/09/24 11:37:30;;;;;;;1.90;1.20;;;21.10;54.70;;;;;;5050007;28;20484;-66
2022/09/24 11:40:28;;;;;;;2.45;1.38;;;21.10;54.60;;;;;;5050614;28;20067;-66
2022/09/24 11:43:35;;;;;;;3.53;1.40;;;21.10;54.60;;;;;;5050866;28;20485;-66
2022/09/24 11:46:45;;;;;;;1.73;1.08;;;21.10;54.60;;;;;;5001818;28;20044;-66
2022/09/24 11:49:32;;;;;;;2.15;1.20;;;21.10;54.60;;;;;;5014285;28;20500;-67
2022/09/24 11:52:21;;;;;;;2.90;1.20;;;21.10;54.60;;;;;;5048763;28;20357;-66
2022/09/24 11:54:54;;;;;;;;;;;21.10;54.70;;;;;;5051534;28;20407;-67
2022/09/24 11:57:29;;;;;;;1.40;1.00;;;21.00;54.70;;;;;;5050592;28;19919;-66
2022/09/24 12:00:07;;;;;;;2.22;1.10;;;21.10;54.70;;;;;;5048781;28;20045;-67
2022/09/24 12:02:56;;;;;;;2.22;1.20;;;21.00;54.70;;;;;;5050257;28;20036;-67
2022/09/24 12:05:29;;;;;;;1.80;1.10;;;21.10;54.70;;;;;;5049662;28;20086;-66
2022/09/24 12:08:02;;;;;;;2.17;1.10;;;21.10;54.60;;;;;;5049878;28;20376;-67
2022/09/24 12:10:36;;;;;;;2.60;1.30;;;21.10;54.70;;;;;;5049961;28;20104;-65
2022/09/24 12:13:16;;;;;;;2.33;1.20;;;21.10;54.70;;;;;;5050027;28;20480;-66
2022/09/24 12:15:55;;;;;;;2.65;1.38;;;21.00;54.70;;;;;;5049925;28;20049;-66
2022/09/24 12:18:52;;;;;;;2.17;1.10;;;21.10;54.70;;;;;;5048297;28;20021;-66
2022/09/24 12:21:25;;;;;;;1.80;1.20;;;21.10;54.70;;;;;;5048837;28;20036;-66
2022/09/24 12:23:54;;;;;;;2.47;1.20;;;21.10;54.70;;;;;;5049825;28;20168;-66
2022/09/24 12:26:24;;;;;;;2.47;1.30;;;21.10;54.70;;;;;;5049164;28;20476;-65
2022/09/24 12:32:54;;;;;;;2.58;1.20;;;21.10;54.70;;;;;;5047807;28;20091;-66
2022/09/24 12:35:41;;;;;;;1.92;1.10;;;21.10;54.70;;;;;;5049446;28;20033;-67
2022/09/24 12:38:14;;;;;;;2.47;1.35;;;21.10;54.80;;;;;;5049482;28;20492;-66
2022/09/24 12:41:07;;;;;;;2.25;1.23;;;21.10;54.80;;;;;;5049561;28;20480;-66
2022/09/24 12:43:57;;;;;;;2.20;1.20;;;21.10;54.80;;;;;;5047470;28;20029;-66
2022/09/24 12:46:28;;;;;;;3.50;1.13;;;21.00;54.70;;;;;;5048155;28;20025;-66
2022/09/24 12:48:55;;;;;;;2.00;1.08;;;21.10;54.80;;;;;;5050279;28;20575;-66
2022/09/24 12:51:23;;;;;;;2.42;1.33;;;21.10;54.80;;;;;;5050135;28;20037;-66
2022/09/24 12:53:59;;;;;;;2.83;1.33;;;21.10;54.80;;;;;;5049179;28;20435;-66
2022/09/24 12:56:28;;;;;;;2.35;1.40;;;21.10;54.80;;;;;;5049688;28;20033;-66
2022/09/24 12:58:54;;;;;;;;;;;21.10;54.80;;;;;;5050686;28;20028;-67
2022/09/24 13:01:22;;;;;;;2.83;1.52;;;21.00;54.90;;;;;;5040313;28;19913;-67
2022/09/24 13:04:05;;;;;;;3.40;1.58;;;21.00;54.90;;;;;;5021244;28;20030;-66
2022/09/24 13:06:36;;;;;;;4.75;1.52;;;21.10;55.20;;;;;;5028960;28;20048;-66
2022/09/24 13:09:21;;;;;;;3.28;1.30;;;21.10;55.10;;;;;;5030238;28;20025;-66
2022/09/24 13:11:47;;;;;;;3.20;1.70;;;21.10;55.00;;;;;;5030383;28;20048;-66
2022/09/24 13:14:12;;;;;;;2.50;1.48;;;21.10;55.00;;;;;;5030617;28;20026;-66
2022/09/24 13:16:44;;;;;;;3.38;1.50;;;21.20;55.00;;;;;;5031091;28;20120;-66
2022/09/24 13:19:46;;;;;;;2.65;1.33;;;21.20;55.00;;;;;;5030556;28;20084;-66
2022/09/24 13:22:30;;;;;;;3.17;1.40;;;21.20;55.00;;;;;;4941159;29;20027;-66
2022/09/24 13:25:08;;;;;;;2.78;1.40;;;21.20;55.00;;;;;;5021467;28;20578;-65
2022/09/24 13:27:40;;;;;;;2.85;1.60;;;21.30;55.00;;;;;;5028696;28;20036;-66